createdAt,value
2022-09-21T00:01:10.102Z,101116.47
2022-09-21T00:06:18.008Z,101118.50
2022-09-21T00:11:25.407Z,101114.44
2022-09-21T00:16:28.877Z,101131.81
2022-09-21T00:21:31.736Z,101135.34
2022-09-21T00:26:34.941Z,101111.69
2022-09-21T00:31:37.970Z,101124.69
2022-09-21T00:36:40.746Z,101127.16
2022-09-21T00:41:43.551Z,101119.31
2022-09-21T00:46:47.693Z,101128.59
2022-09-21T00:51:51.555Z,101129.22
2022-09-21T00:56:55.329Z,101106.06
2022-09-21T01:01:59.538Z,101099.75
2022-09-21T01:07:05.997Z,101108.41
2022-09-21T01:13:05.044Z,101122.00
2022-09-21T01:18:19.839Z,101134.50
2022-09-21T01:23:26.646Z,101133.19
2022-09-21T01:28:44.458Z,101115.16
2022-09-21T01:33:50.281Z,101107.88
2022-09-21T01:38:56.935Z,101102.91
2022-09-21T01:44:08.858Z,101115.19
2022-09-21T01:49:14.501Z,101116.75
2022-09-21T01:54:22.170Z,101112.41
2022-09-21T02:00:00.787Z,101114.03
2022-09-21T02:05:05.501Z,101126.09
2022-09-21T02:10:09.290Z,101110.50
2022-09-21T02:15:13.049Z,101107.13
2022-09-21T02:20:21.347Z,101097.81
2022-09-21T02:25:42.611Z,101107.66
2022-09-21T02:30:53.247Z,101102.78
2022-09-21T02:36:06.225Z,101104.81
2022-09-21T02:41:26.505Z,101107.31
2022-09-21T02:46:36.860Z,101095.91
2022-09-21T02:51:48.578Z,101099.84
2022-09-21T02:56:51.996Z,101082.94
2022-09-21T03:01:56.250Z,101102.13
2022-09-21T03:06:59.338Z,101100.66
2022-09-21T03:12:02.395Z,101086.22
2022-09-21T03:17:05.163Z,101083.63
2022-09-21T03:22:07.883Z,101083.31
2022-09-21T03:27:10.663Z,101086.66
2022-09-21T03:32:14.753Z,101076.22
2022-09-21T03:37:17.487Z,101067.19
2022-09-21T03:42:20.241Z,101093.19
2022-09-21T03:47:22.961Z,101091.28
2022-09-21T03:52:25.840Z,101085.63
2022-09-21T03:57:28.537Z,101085.69
2022-09-21T04:02:32.445Z,101096.28
2022-09-21T04:07:35.453Z,101079.84
2022-09-21T04:12:38.192Z,101088.31
2022-09-21T04:17:41.149Z,101075.25
2022-09-21T04:22:45.188Z,101059.63
2022-09-21T04:27:48.796Z,101072.22
2022-09-21T04:32:51.623Z,101060.63
2022-09-21T04:37:56.793Z,101050.59
2022-09-21T04:42:59.600Z,101048.34
2022-09-21T04:48:02.476Z,101038.50
2022-09-21T04:53:06.252Z,101030.03
2022-09-21T04:58:09.112Z,101027.38
2022-09-21T05:03:11.961Z,101023.28
2022-09-21T05:08:14.792Z,101015.47
2022-09-21T05:13:19.842Z,101008.69
2022-09-21T05:18:22.625Z,101000.19
2022-09-21T05:23:25.702Z,100996.81
2022-09-21T05:28:29.242Z,100996.03
2022-09-21T05:33:33.406Z,100991.72
2022-09-21T05:38:36.459Z,100986.56
2022-09-21T05:43:39.464Z,100972.78
2022-09-21T05:48:44.519Z,100969.28
2022-09-21T05:54:04.765Z,100969.31
2022-09-21T05:59:30.431Z,100974.47
2022-09-21T06:04:33.466Z,100964.03
2022-09-21T06:09:38.927Z,100964.78
2022-09-21T06:14:45.187Z,100937.91
2022-09-21T06:19:47.915Z,100947.31
2022-09-21T06:24:50.743Z,100926.38
2022-09-21T06:29:53.508Z,100922.75
2022-09-21T06:34:56.211Z,100915.81
2022-09-21T06:39:58.988Z,100923.81
2022-09-21T06:45:01.806Z,100914.50
2022-09-21T06:50:05.883Z,100896.59
2022-09-21T06:55:10.387Z,100900.19
2022-09-21T07:00:14.133Z,100889.72
2022-09-21T07:05:17.308Z,100879.66
2022-09-21T07:10:20.859Z,100876.16
2022-09-21T07:15:24.107Z,100876.31
2022-09-21T07:20:26.840Z,100860.13
2022-09-21T07:25:32.540Z,100846.56
2022-09-21T07:30:37.802Z,100844.28
2022-09-21T07:35:40.469Z,100838.66
2022-09-21T07:40:43.183Z,100831.94
2022-09-21T07:45:59.524Z,100821.53
2022-09-21T07:51:07.782Z,100817.75
2022-09-21T07:56:13.522Z,100807.31
2022-09-21T08:01:16.405Z,100806.38
2022-09-21T08:06:19.806Z,100778.72
2022-09-21T08:11:23.184Z,100799.41
2022-09-21T08:16:27.241Z,100802.03
2022-09-21T08:21:30.419Z,100785.78
2022-09-21T08:26:33.952Z,100791.72
2022-09-21T08:31:36.847Z,100783.25
2022-09-21T08:36:40.213Z,100772.22
2022-09-21T08:42:16.726Z,100772.31
2022-09-21T08:47:34.107Z,100754.38
2022-09-21T08:52:37.723Z,100740.69
2022-09-21T08:57:40.449Z,100744.78
2022-09-21T09:03:15.302Z,100723.16
2022-09-21T09:08:20.799Z,100737.50
2022-09-21T09:13:32.444Z,100730.44
2022-09-21T09:18:43.558Z,100733.44
2022-09-21T09:23:54.027Z,100715.97
2022-09-21T09:29:02.187Z,100717.38
2022-09-21T09:34:15.917Z,100718.72
2022-09-21T09:39:18.613Z,100696.25
2022-09-21T09:44:50.679Z,100695.97
2022-09-21T09:49:59.271Z,100697.38
2022-09-21T09:55:15.637Z,100689.19
2022-09-21T10:00:20.289Z,100664.66
2022-09-21T10:05:34.925Z,100680.34
2022-09-21T10:10:43.416Z,100667.94
2022-09-21T10:15:55.311Z,100661.47
2022-09-21T10:21:04.714Z,100660.66
2022-09-21T10:26:11.663Z,100655.47
2022-09-21T10:31:21.801Z,100654.88
2022-09-21T10:36:30.461Z,100648.09
2022-09-21T10:41:33.128Z,100655.19
2022-09-21T10:46:36.326Z,100630.53
2022-09-21T10:51:40.147Z,100642.44
2022-09-21T10:56:59.697Z,100621.09
2022-09-21T11:02:09.175Z,100603.63
2022-09-21T11:07:25.064Z,100636.09
2022-09-21T11:12:34.816Z,100628.72
2022-09-21T11:17:43.252Z,100627.06
2022-09-21T11:23:05.663Z,100622.81
2022-09-21T11:28:14.269Z,100616.03
2022-09-21T11:33:42.187Z,100608.38
2022-09-21T11:38:57.619Z,100602.63
2022-09-21T11:44:04.598Z,100599.53
2022-09-21T11:49:29.624Z,100594.63
2022-09-21T11:55:00.962Z,100599.97
2022-09-21T12:00:17.337Z,100593.19
2022-09-21T12:05:23.388Z,100600.06
2022-09-21T12:10:51.773Z,100593.19
2022-09-21T12:15:56.483Z,100600.16
2022-09-21T12:21:06.238Z,100597.63
2022-09-21T12:26:10.109Z,100585.59
2022-09-21T12:31:23.889Z,100576.19
2022-09-21T12:36:51.922Z,100579.66
2022-09-21T12:42:05.911Z,100565.94
2022-09-21T12:47:13.144Z,100555.59
2022-09-21T12:52:20.794Z,100563.34
2022-09-21T12:58:04.353Z,100560.72
2022-09-21T13:03:07.106Z,100557.28
2022-09-21T13:08:13.605Z,100546.09
2022-09-21T13:13:30.874Z,100533.16
2022-09-21T13:18:37.559Z,100545.25
2022-09-21T13:23:43.303Z,100519.44
2022-09-21T13:28:55.127Z,100542.72
2022-09-21T13:34:17.344Z,100548.72
2022-09-21T13:39:20.148Z,100540.94
2022-09-21T13:44:34.885Z,100547.84
2022-09-21T13:49:51.208Z,100542.66
2022-09-21T13:55:07.463Z,100550.41
2022-09-21T14:00:13.241Z,100544.38
2022-09-21T14:05:26.830Z,100546.09
2022-09-21T14:10:32.531Z,100537.53
2022-09-21T14:15:38.361Z,100534.97
2022-09-21T14:20:42.748Z,100534.94
2022-09-21T14:26:02.528Z,100534.09
2022-09-21T14:31:28.648Z,100535.81
2022-09-21T14:36:42.248Z,100534.09
2022-09-21T14:41:46.402Z,100538.41
2022-09-21T14:47:04.440Z,100534.94
2022-09-21T14:52:18.261Z,100531.47
2022-09-21T14:57:37.942Z,100532.34
2022-09-21T15:02:42.508Z,100528.88
2022-09-21T15:08:10.962Z,100517.59
2022-09-21T15:13:34.394Z,100527.06
2022-09-21T15:18:42.127Z,100522.69
2022-09-21T15:23:44.875Z,100518.28
2022-09-21T15:29:08.879Z,100495.84
2022-09-21T15:34:14.214Z,100508.75
2022-09-21T15:39:28.671Z,100494.94
2022-09-21T15:44:35.426Z,100494.09
2022-09-21T15:49:42.389Z,100494.06
2022-09-21T15:54:52.637Z,100480.25
2022-09-21T15:59:56.607Z,100480.25
2022-09-21T16:04:59.574Z,100476.78
2022-09-21T16:10:03.652Z,100471.63
2022-09-21T16:15:28.654Z,100481.84
2022-09-21T16:20:48.589Z,100488.75
2022-09-21T16:26:01.979Z,100478.38
2022-09-21T16:31:27.258Z,100483.53
2022-09-21T16:36:32.843Z,100490.38
2022-09-21T16:42:02.472Z,100477.47
2022-09-21T16:47:05.581Z,100470.59
2022-09-21T16:52:08.350Z,100459.47
2022-09-21T16:57:11.735Z,100463.81
2022-09-21T17:02:14.973Z,100464.59
2022-09-21T17:07:19.236Z,100456.78
2022-09-21T17:12:22.540Z,100449.81
2022-09-21T17:17:26.008Z,100444.63
2022-09-21T17:22:29.405Z,100433.28
2022-09-21T17:27:32.725Z,100452.19
2022-09-21T17:32:38.535Z,100443.66
2022-09-21T17:37:41.614Z,100429.94
2022-09-21T17:42:48.944Z,100425.63
2022-09-21T17:47:52.383Z,100415.34
2022-09-21T17:53:15.002Z,100417.09
2022-09-21T17:58:57.376Z,100420.59
2022-09-21T18:04:00.823Z,100406.88
2022-09-21T18:09:04.297Z,100410.31
2022-09-21T18:14:09.628Z,100396.59
2022-09-21T18:19:42.863Z,100399.94
2022-09-21T18:24:46.047Z,100393.03
2022-09-21T18:29:49.061Z,100396.44
2022-09-21T18:35:22.713Z,100380.94
2022-09-21T18:40:42.095Z,100387.78
2022-09-21T18:45:49.405Z,100383.47
2022-09-21T18:51:05.459Z,100370.56
2022-09-21T18:56:08.826Z,100363.63
2022-09-21T19:01:17.052Z,100360.09
2022-09-21T19:06:19.898Z,100368.56
2022-09-21T19:11:32.611Z,100353.91
2022-09-21T19:16:51.571Z,100364.19
2022-09-21T19:22:16.969Z,100355.63
2022-09-21T19:27:26.448Z,100354.69
2022-09-21T19:32:32.566Z,100343.53
2022-09-21T19:37:35.351Z,100354.63
2022-09-21T19:42:59.695Z,100332.28
2022-09-21T19:48:10.482Z,100329.72
2022-09-21T19:53:32.824Z,100325.44
2022-09-21T19:58:54.036Z,100321.06
2022-09-21T20:03:56.863Z,100321.16
2022-09-21T20:09:08.089Z,100323.66
2022-09-21T20:14:37.254Z,100310.81
2022-09-21T20:20:19.601Z,100320.28
2022-09-21T20:25:32.899Z,100316.00
2022-09-21T20:30:36.503Z,100309.16
2022-09-21T20:35:39.149Z,100308.28
2022-09-21T20:40:42.769Z,100289.34
2022-09-21T20:45:48.163Z,100292.72
2022-09-21T20:50:51.462Z,100292.84
2022-09-21T20:55:55.936Z,100287.72
2022-09-21T21:01:06.626Z,100273.13
2022-09-21T21:06:14.713Z,100267.06
2022-09-21T21:11:17.443Z,100253.31
2022-09-21T21:16:20.157Z,100260.16
2022-09-21T21:21:24.972Z,100253.31
2022-09-21T21:26:50.329Z,100253.31
2022-09-21T21:31:51.035Z,100254.22
2022-09-21T21:36:53.953Z,100239.53
2022-09-21T21:41:57.007Z,100235.25
2022-09-21T21:47:10.345Z,100224.84
2022-09-21T21:52:22.844Z,100252.41
2022-09-21T21:57:25.526Z,100254.97
2022-09-21T22:02:29.705Z,100252.28
2022-09-21T22:07:32.481Z,100254.88
2022-09-21T22:12:36.069Z,100251.44
2022-09-21T22:17:39.022Z,100237.59
2022-09-21T22:22:41.767Z,100237.50
2022-09-21T22:27:44.440Z,100239.19
2022-09-21T22:32:47.189Z,100258.06
2022-09-21T22:37:53.093Z,100245.16
2022-09-21T22:42:56.150Z,100234.91
2022-09-21T22:47:58.765Z,100242.59
2022-09-21T22:53:01.388Z,100251.06
2022-09-21T22:58:04.132Z,100249.19
2022-09-21T23:03:06.765Z,100251.66
2022-09-21T23:08:10.691Z,100264.28
2022-09-21T23:13:16.414Z,100257.38
2022-09-21T23:18:19.112Z,100262.41
2022-09-21T23:23:22.256Z,100272.72
2022-09-21T23:28:24.891Z,100276.09
2022-09-21T23:33:35.827Z,100269.16
2022-09-21T23:38:39.229Z,100262.31
2022-09-21T23:43:43.289Z,100267.56
2022-09-21T23:48:46.398Z,100270.19
2022-09-21T23:53:49.499Z,100256.41
2022-09-21T23:58:52.286Z,100252.16
